MSC Barbara — HODU — position and weather

sailwx.info

Track history (hours):
 
Tides and Currents Weather Stations Pressure Air Temp Water Temp Dewpoint Dewpoint Depression Visibility Wind Speed Wind Dir Waves Ship Positions

MSC Barbara

Last reported at 2015-May-06 16:34 UTC. Time now 2015-May-06 17:30 UTC.
Position N 39°15' W 076°33'.

; draft 11.1 m.

Type: Ship. MMSI: 353775000.

Date/timePositionNaut miles runAvg speedWind from/ knotsBaromVisibWave heightAir tempDewpointWater temp
2015-May-06 16:34N 39°15' W 076°33'0 0.0
2015-May-06 14:33N 39°15' W 076°33'4 4.2
2015-May-06 13:34N 39°12' W 076°29'1110.8
2015-May-06 12:31N 39°02' W 076°23'1717.3
2015-May-06 11:33N 38°45' W 076°26'1818.1
2015-May-06 10:33N 38°27' W 076°22'2421.9
2015-May-06 09:27N 38°05' W 076°13'147 7.6
2015-May-05 14:10N 39°41' W 073°51'1 0.9
2015-May-05 13:07N 39°41' W 073°52'2011.3
2015-May-05 11:19N 40°01' W 073°51'1013.0
2015-May-05 10:33N 40°11' W 073°50'1312.7
2015-May-05 09:33N 40°24' W 073°49'1211.6
2015-May-05 08:34N 40°31' W 074°00'10 9.8
2015-May-05 07:33N 40°39' W 074°09'1 1.3
2015-May-05 06:31N 40°40' W 074°09'0 0.0
2015-May-05 05:31N 40°40' W 074°09'0 0.0
2015-May-05 04:34N 40°40' W 074°09'0 0.0
2015-May-05 03:33N 40°40' W 074°09'0 0.0
2015-May-05 02:33N 40°40' W 074°09'0 0.0
2015-May-05 01:29N 40°40' W 074°09'0 0.0
2015-May-05 00:32N 40°40' W 074°09'0 0.0
2015-May-04 23:28N 40°40' W 074°09'0 0.0
2015-May-04 22:28N 40°40' W 074°09'0 0.0
2015-May-04 21:34N 40°40' W 074°09'0 0.0
2015-May-04 20:33N 40°40' W 074°09'0 0.0
2015-May-04 19:30N 40°40' W 074°09'0 0.0
2015-May-04 18:32N 40°40' W 074°09'0 0.0
2015-May-04 17:32N 40°40' W 074°09'0 0.0
2015-May-04 16:33N 40°40' W 074°09'0 0.0
2015-May-04 15:33N 40°40' W 074°09'0 0.0
2015-May-04 14:34N 40°40' W 074°09'0 0.0
2015-May-04 13:34N 40°40' W 074°09'0 0.0
2015-May-04 12:34N 40°40' W 074°09'0 0.0
2015-May-04 11:34N 40°40' W 074°09'0 0.0
2015-May-04 10:33N 40°40' W 074°09'3 2.7
2015-May-04 09:33N 40°39' W 074°05'8 7.7
2015-May-04 08:33N 40°32' W 074°01'1313.2
2015-May-04 07:33N 40°27' W 073°45'1515.4
2015-May-04 06:33N 40°28' W 073°25'1716.9
2015-May-04 05:33N 40°30' W 073°03'1716.7
2015-May-04 04:34N 40°30' W 072°41'1716.7
2015-May-04 03:33N 40°30' W 072°19'1616.5
2015-May-04 02:34N 40°31' W 071°57'1716.6
2015-May-04 01:34N 40°32' W 071°35'1716.8
2015-May-04 00:34N 40°32' W 071°13'1716.8
2015-May-03 23:34N 40°33' W 070°51'1716.9
2015-May-03 22:34N 40°33' W 070°29'1717.2
2015-May-03 21:33N 40°34' W 070°06'1717.4
2015-May-03 20:34N 40°34' W 069°44'1717.2
2015-May-03 19:34N 40°35' W 069°21'1717.0
2015-May-03 18:33N 40°35' W 068°59'2216.8
2015-May-03 17:15N 40°39' W 068°30'1417.0
2015-May-03 16:27N 40°41' W 068°12'  
2015-Apr-27 12:29N 49°57' W 003°17'2519.5
2015-Apr-27 11:13N 50°01' W 002°39'1420.2
2015-Apr-27 10:32N 50°03' W 002°18'6621.0
2015-Apr-27 07:24N 49°42' W 000°42'1720.1
2015-Apr-27 06:33N 49°34' W 000°18'1515.2
2015-Apr-27 05:34N 49°29' E 000°04'3 3.2
2015-Apr-27 04:31N 49°28' E 000°09'0 0.0
2015-Apr-27 03:33N 49°28' E 000°09'0 0.0
2015-Apr-27 02:33N 49°28' E 000°09'0 0.0
2015-Apr-27 01:32N 49°28' E 000°09'0 0.0
2015-Apr-27 00:32N 49°28' E 000°09'0 0.0
2015-Apr-26 23:32N 49°28' E 000°09'0 0.0
2015-Apr-26 22:31N 49°28' E 000°09'0 0.0
2015-Apr-26 21:31N 49°28' E 000°09'0 0.0
2015-Apr-26 20:33N 49°28' E 000°09'0 0.0
2015-Apr-26 19:33N 49°28' E 000°09'0 0.0
2015-Apr-26 18:32N 49°28' E 000°09'0 0.2
2015-Apr-26 17:33N 49°27' E 000°09'  
Track history (hours):
 
Tides and Currents Weather Stations Pressure Air Temp Water Temp Dewpoint Dewpoint Depression Visibility Wind Speed Wind Dir Waves Ship Positions

MSC Barbara

Last reported at 2015-May-06 16:34 UTC. Time now 2015-May-06 17:30 UTC.
Position N 39°15' W 076°33'.

; draft 11.1 m.

Type: Ship. MMSI: 353775000.

Date/timePositionNaut miles runAvg speedWind from/ knotsBaromVisibWave heightAir tempDewpointWater temp
2015-May-06 16:34N 39°15' W 076°33'0 0.0
2015-May-06 14:33N 39°15' W 076°33'4 4.2
2015-May-06 13:34N 39°12' W 076°29'1110.8
2015-May-06 12:31N 39°02' W 076°23'1717.3
2015-May-06 11:33N 38°45' W 076°26'1818.1
2015-May-06 10:33N 38°27' W 076°22'2421.9
2015-May-06 09:27N 38°05' W 076°13'147 7.6
2015-May-05 14:10N 39°41' W 073°51'1 0.9
2015-May-05 13:07N 39°41' W 073°52'2011.3
2015-May-05 11:19N 40°01' W 073°51'1013.0
2015-May-05 10:33N 40°11' W 073°50'1312.7
2015-May-05 09:33N 40°24' W 073°49'1211.6
2015-May-05 08:34N 40°31' W 074°00'10 9.8
2015-May-05 07:33N 40°39' W 074°09'1 1.3
2015-May-05 06:31N 40°40' W 074°09'0 0.0
2015-May-05 05:31N 40°40' W 074°09'0 0.0
2015-May-05 04:34N 40°40' W 074°09'0 0.0
2015-May-05 03:33N 40°40' W 074°09'0 0.0
2015-May-05 02:33N 40°40' W 074°09'0 0.0
2015-May-05 01:29N 40°40' W 074°09'0 0.0
2015-May-05 00:32N 40°40' W 074°09'0 0.0
2015-May-04 23:28N 40°40' W 074°09'0 0.0
2015-May-04 22:28N 40°40' W 074°09'0 0.0
2015-May-04 21:34N 40°40' W 074°09'0 0.0
2015-May-04 20:33N 40°40' W 074°09'0 0.0
2015-May-04 19:30N 40°40' W 074°09'0 0.0
2015-May-04 18:32N 40°40' W 074°09'0 0.0
2015-May-04 17:32N 40°40' W 074°09'0 0.0
2015-May-04 16:33N 40°40' W 074°09'0 0.0
2015-May-04 15:33N 40°40' W 074°09'0 0.0
2015-May-04 14:34N 40°40' W 074°09'0 0.0
2015-May-04 13:34N 40°40' W 074°09'0 0.0
2015-May-04 12:34N 40°40' W 074°09'0 0.0
2015-May-04 11:34N 40°40' W 074°09'0 0.0
2015-May-04 10:33N 40°40' W 074°09'3 2.7
2015-May-04 09:33N 40°39' W 074°05'8 7.7
2015-May-04 08:33N 40°32' W 074°01'1313.2
2015-May-04 07:33N 40°27' W 073°45'1515.4
2015-May-04 06:33N 40°28' W 073°25'1716.9
2015-May-04 05:33N 40°30' W 073°03'1716.7
2015-May-04 04:34N 40°30' W 072°41'1716.7
2015-May-04 03:33N 40°30' W 072°19'1616.5
2015-May-04 02:34N 40°31' W 071°57'1716.6
2015-May-04 01:34N 40°32' W 071°35'1716.8
2015-May-04 00:34N 40°32' W 071°13'1716.8
2015-May-03 23:34N 40°33' W 070°51'1716.9
2015-May-03 22:34N 40°33' W 070°29'1717.2
2015-May-03 21:33N 40°34' W 070°06'1717.4
2015-May-03 20:34N 40°34' W 069°44'1717.2
2015-May-03 19:34N 40°35' W 069°21'1717.0
2015-May-03 18:33N 40°35' W 068°59'2216.8
2015-May-03 17:15N 40°39' W 068°30'1417.0
2015-May-03 16:27N 40°41' W 068°12'  
2015-Apr-27 12:29N 49°57' W 003°17'2519.5
2015-Apr-27 11:13N 50°01' W 002°39'1420.2
2015-Apr-27 10:32N 50°03' W 002°18'6621.0
2015-Apr-27 07:24N 49°42' W 000°42'1720.1
2015-Apr-27 06:33N 49°34' W 000°18'1515.2
2015-Apr-27 05:34N 49°29' E 000°04'3 3.2
2015-Apr-27 04:31N 49°28' E 000°09'0 0.0
2015-Apr-27 03:33N 49°28' E 000°09'0 0.0
2015-Apr-27 02:33N 49°28' E 000°09'0 0.0
2015-Apr-27 01:32N 49°28' E 000°09'0 0.0
2015-Apr-27 00:32N 49°28' E 000°09'0 0.0
2015-Apr-26 23:32N 49°28' E 000°09'0 0.0
2015-Apr-26 22:31N 49°28' E 000°09'0 0.0
2015-Apr-26 21:31N 49°28' E 000°09'0 0.0
2015-Apr-26 20:33N 49°28' E 000°09'0 0.0
2015-Apr-26 19:33N 49°28' E 000°09'0 0.0
2015-Apr-26 18:32N 49°28' E 000°09'0 0.2
2015-Apr-26 17:33N 49°27' E 000°09'  

Dump ship's entire track history